createdAt,value
2023-05-24T00:00:06.453Z,15.16
2023-05-24T00:02:33.340Z,15.14
2023-05-24T00:05:01.211Z,15.09
2023-05-24T00:07:28.335Z,15.07
2023-05-24T00:09:55.452Z,15.05
2023-05-24T00:12:22.285Z,15.00
2023-05-24T00:14:51.886Z,14.93
2023-05-24T00:17:18.722Z,14.95
2023-05-24T00:19:45.527Z,14.97
2023-05-24T00:22:16.557Z,14.96
2023-05-24T00:24:43.446Z,14.99
2023-05-24T00:27:11.830Z,15.02
2023-05-24T00:29:38.772Z,15.06
2023-05-24T00:32:06.348Z,15.02
2023-05-24T00:34:33.382Z,14.94
2023-05-24T00:37:00.597Z,14.93
2023-05-24T00:39:27.555Z,14.95
2023-05-24T00:41:57.262Z,15.04
2023-05-24T00:44:24.148Z,15.00
2023-05-24T00:46:51.067Z,14.98
2023-05-24T00:49:19.755Z,14.93
2023-05-24T00:51:46.992Z,14.93
2023-05-24T00:54:14.977Z,14.89
2023-05-24T00:56:43.749Z,14.83
2023-05-24T00:59:10.816Z,14.81
2023-05-24T01:01:37.722Z,14.84
2023-05-24T01:04:05.582Z,14.83
2023-05-24T01:06:49.969Z,14.80
2023-05-24T01:10:09.782Z,14.87
2023-05-24T01:13:24.106Z,14.89
2023-05-24T01:16:01.283Z,14.88
2023-05-24T01:18:43.266Z,14.81
2023-05-24T01:21:13.914Z,14.76
2023-05-24T01:24:10.125Z,14.71
2023-05-24T01:27:08.583Z,14.69
2023-05-24T01:29:37.449Z,14.71
2023-05-24T01:32:05.633Z,14.75
2023-05-24T01:34:32.782Z,14.66
2023-05-24T01:36:59.522Z,14.62
2023-05-24T01:39:30.403Z,14.57
2023-05-24T01:42:26.215Z,14.61
2023-05-24T01:45:20.810Z,14.60
2023-05-24T01:48:18.978Z,14.62
2023-05-24T01:50:55.000Z,14.51
2023-05-24T01:53:32.817Z,14.48
2023-05-24T01:56:03.958Z,14.50
2023-05-24T01:58:33.217Z,14.52
2023-05-24T02:01:01.041Z,14.50
2023-05-24T02:03:27.876Z,14.48
2023-05-24T02:05:54.774Z,14.51
2023-05-24T02:08:22.010Z,14.51
2023-05-24T02:10:48.977Z,14.48
2023-05-24T02:13:21.932Z,14.47
2023-05-24T02:15:48.913Z,14.46
2023-05-24T02:18:18.591Z,14.45
2023-05-24T02:20:46.806Z,14.46
2023-05-24T02:23:17.412Z,14.45
2023-05-24T02:25:44.278Z,14.41
2023-05-24T02:28:11.122Z,14.41
2023-05-24T02:30:38.458Z,14.38
2023-05-24T02:33:05.509Z,14.39
2023-05-24T02:35:33.448Z,14.42
2023-05-24T02:38:01.502Z,14.43
2023-05-24T02:40:28.363Z,14.36
2023-05-24T02:42:55.356Z,14.40
2023-05-24T02:45:22.152Z,14.42
2023-05-24T02:47:49.060Z,14.44
2023-05-24T02:50:16.221Z,14.38
2023-05-24T02:52:43.961Z,14.34
2023-05-24T02:55:10.850Z,14.31
2023-05-24T02:57:38.345Z,14.30
2023-05-24T03:00:09.449Z,14.27
2023-05-24T03:02:38.500Z,14.22
2023-05-24T03:05:06.294Z,14.21
2023-05-24T03:07:33.481Z,14.23
2023-05-24T03:10:00.330Z,14.23
2023-05-24T03:12:27.198Z,14.21
2023-05-24T03:14:53.996Z,14.12
2023-05-24T03:17:20.981Z,14.01
2023-05-24T03:19:48.094Z,13.93
2023-05-24T03:22:14.991Z,13.89
2023-05-24T03:24:41.959Z,13.97
2023-05-24T03:27:08.763Z,13.97
2023-05-24T03:29:35.705Z,13.97
2023-05-24T03:32:02.765Z,13.96
2023-05-24T03:34:30.240Z,14.00
2023-05-24T03:36:57.541Z,13.94
2023-05-24T03:39:24.290Z,13.86
2023-05-24T03:41:51.220Z,13.83
2023-05-24T03:44:18.038Z,13.85
2023-05-24T03:46:44.937Z,13.81
2023-05-24T03:49:11.758Z,13.75
2023-05-24T03:51:38.556Z,13.78
2023-05-24T03:54:05.808Z,13.79
2023-05-24T03:56:34.210Z,13.79
2023-05-24T03:59:03.890Z,13.76
2023-05-24T04:01:34.939Z,13.71
2023-05-24T04:04:05.169Z,13.72
2023-05-24T04:06:32.151Z,13.73
2023-05-24T04:09:01.309Z,13.65
2023-05-24T04:11:28.850Z,13.66
2023-05-24T04:13:57.281Z,13.70
2023-05-24T04:16:25.960Z,13.63
2023-05-24T04:18:54.436Z,13.64
2023-05-24T04:21:21.465Z,13.59
2023-05-24T04:23:48.435Z,13.60
2023-05-24T04:26:15.705Z,13.60
2023-05-24T04:28:42.878Z,13.65
2023-05-24T04:31:09.880Z,13.65
2023-05-24T04:33:37.253Z,13.70
2023-05-24T04:36:04.542Z,13.73
2023-05-24T04:38:34.759Z,13.68
2023-05-24T04:41:02.416Z,13.69
2023-05-24T04:43:29.337Z,13.71
2023-05-24T04:45:58.853Z,13.77
2023-05-24T04:48:28.445Z,13.66
2023-05-24T04:50:57.329Z,13.75
2023-05-24T04:53:25.040Z,13.87
2023-05-24T04:55:55.808Z,13.92
2023-05-24T04:58:22.610Z,13.96
2023-05-24T05:00:49.390Z,13.98
2023-05-24T05:03:16.501Z,13.86
2023-05-24T05:05:44.429Z,13.71
2023-05-24T05:08:11.327Z,13.72
2023-05-24T05:10:38.427Z,13.74
2023-05-24T05:13:05.227Z,13.72
2023-05-24T05:15:32.624Z,13.66
2023-05-24T05:18:01.881Z,13.57
2023-05-24T05:20:30.132Z,13.64
2023-05-24T05:22:57.016Z,13.55
2023-05-24T05:25:24.165Z,13.51
2023-05-24T05:27:51.217Z,13.56
2023-05-24T05:30:18.118Z,13.64
2023-05-24T05:32:45.703Z,13.66
2023-05-24T05:35:12.600Z,13.66
2023-05-24T05:37:43.991Z,13.57
2023-05-24T05:40:11.673Z,13.61
2023-05-24T05:42:38.526Z,13.64
2023-05-24T05:45:06.357Z,13.60
2023-05-24T05:47:33.264Z,13.57
2023-05-24T05:50:00.086Z,13.57
2023-05-24T05:52:28.852Z,13.49
2023-05-24T05:54:55.763Z,13.48
2023-05-24T05:57:24.323Z,13.55
2023-05-24T05:59:51.577Z,13.63
2023-05-24T06:02:24.826Z,13.58
2023-05-24T06:04:51.799Z,13.57
2023-05-24T06:07:18.915Z,13.62
2023-05-24T06:09:46.070Z,13.63
2023-05-24T06:12:13.750Z,13.65
2023-05-24T06:14:40.513Z,13.68
2023-05-24T06:17:07.649Z,13.59
2023-05-24T06:19:34.487Z,13.60
2023-05-24T06:22:02.163Z,13.69
2023-05-24T06:24:29.016Z,13.72
2023-05-24T06:26:55.929Z,13.73
2023-05-24T06:29:25.020Z,13.84
2023-05-24T06:31:52.152Z,13.91
2023-05-24T06:34:22.697Z,13.79
2023-05-24T06:36:51.324Z,13.88
2023-05-24T06:39:19.009Z,13.84
2023-05-24T06:41:46.926Z,13.86
2023-05-24T06:44:13.823Z,13.75
2023-05-24T06:46:40.945Z,13.84
2023-05-24T06:49:08.453Z,13.98
2023-05-24T06:51:36.113Z,14.07
2023-05-24T06:54:03.002Z,14.12
2023-05-24T06:56:29.954Z,14.16
2023-05-24T06:58:58.664Z,14.11
2023-05-24T07:01:25.654Z,14.10
2023-05-24T07:03:52.653Z,14.14
2023-05-24T07:06:19.549Z,14.22
2023-05-24T07:08:46.855Z,14.33
2023-05-24T07:11:15.881Z,14.37
2023-05-24T07:13:42.780Z,14.49
2023-05-24T07:16:09.712Z,14.52
2023-05-24T07:18:36.916Z,14.55
2023-05-24T07:21:03.749Z,14.55
2023-05-24T07:23:31.085Z,14.56
2023-05-24T07:25:58.173Z,14.60
2023-05-24T07:28:24.975Z,14.76
2023-05-24T07:30:52.329Z,14.73
2023-05-24T07:33:19.482Z,14.72
2023-05-24T07:35:51.284Z,14.73
2023-05-24T07:38:21.359Z,14.66
2023-05-24T07:40:48.388Z,14.64
2023-05-24T07:43:15.826Z,14.71
2023-05-24T07:45:42.763Z,14.57
2023-05-24T07:48:09.821Z,14.48
2023-05-24T07:50:37.243Z,14.57
2023-05-24T07:53:05.192Z,14.69
2023-05-24T07:55:32.042Z,14.76
2023-05-24T07:57:59.077Z,14.85
2023-05-24T08:00:29.933Z,14.88
2023-05-24T08:02:57.331Z,14.91
2023-05-24T08:05:24.351Z,14.93
2023-05-24T08:07:51.381Z,14.86
2023-05-24T08:10:19.097Z,14.71
2023-05-24T08:12:46.164Z,14.76
2023-05-24T08:15:13.406Z,14.89
2023-05-24T08:17:40.381Z,15.03
2023-05-24T08:20:14.245Z,15.13
2023-05-24T08:22:42.585Z,15.21
2023-05-24T08:25:11.750Z,15.34
2023-05-24T08:27:38.601Z,15.47
2023-05-24T08:30:07.288Z,15.48
2023-05-24T08:32:34.742Z,15.48
2023-05-24T08:35:18.580Z,15.35
2023-05-24T08:37:47.913Z,15.27
2023-05-24T08:40:14.931Z,15.23
2023-05-24T08:42:42.299Z,15.26
2023-05-24T08:45:13.931Z,15.25
2023-05-24T08:47:41.428Z,15.25
2023-05-24T08:50:09.454Z,15.13
2023-05-24T08:52:37.088Z,15.14
2023-05-24T08:55:08.585Z,15.21
2023-05-24T08:57:39.951Z,15.25
2023-05-24T09:00:12.907Z,15.19
2023-05-24T09:02:42.446Z,15.16
2023-05-24T09:05:19.683Z,15.12
2023-05-24T09:07:48.134Z,15.09
2023-05-24T09:10:15.817Z,15.04
2023-05-24T09:12:50.180Z,14.91
2023-05-24T09:15:17.285Z,14.89
2023-05-24T09:17:46.276Z,15.03
2023-05-24T09:20:13.894Z,15.07
2023-05-24T09:22:43.094Z,15.20
2023-05-24T09:25:14.563Z,15.10
2023-05-24T09:27:41.658Z,15.08
2023-05-24T09:30:12.501Z,15.18
2023-05-24T09:32:39.913Z,15.19
2023-05-24T09:35:10.722Z,15.26
2023-05-24T09:37:41.288Z,15.28
2023-05-24T09:40:20.150Z,15.40
2023-05-24T09:42:48.936Z,15.70
2023-05-24T09:45:17.461Z,15.89
2023-05-24T09:47:45.392Z,15.85
2023-05-24T09:50:16.285Z,15.95
2023-05-24T09:52:43.923Z,16.03
2023-05-24T09:55:13.045Z,16.34
2023-05-24T09:57:40.087Z,16.82
2023-05-24T10:00:17.776Z,16.88
2023-05-24T10:05:18.974Z,17.16
2023-05-24T10:07:46.965Z,17.08
2023-05-24T10:10:13.983Z,16.81
2023-05-24T10:12:43.958Z,16.62
2023-05-24T10:15:14.555Z,16.52
2023-05-24T10:17:41.701Z,16.67
2023-05-24T10:20:12.334Z,16.76
2023-05-24T10:22:52.697Z,16.90
2023-05-24T10:25:27.399Z,16.92
2023-05-24T10:28:03.496Z,17.08
2023-05-24T10:31:01.664Z,17.25
2023-05-24T10:33:32.664Z,17.46
2023-05-24T10:35:59.943Z,18.06
2023-05-24T10:38:26.898Z,18.58
2023-05-24T10:40:53.882Z,18.39
2023-05-24T10:43:22.035Z,18.14
2023-05-24T10:45:51.141Z,18.21
2023-05-24T10:48:24.145Z,18.08
2023-05-24T10:50:51.428Z,17.81
2023-05-24T10:53:22.502Z,17.74
2023-05-24T10:56:09.709Z,17.69
2023-05-24T10:58:51.658Z,17.73
2023-05-24T11:01:33.503Z,17.88
2023-05-24T11:04:18.181Z,18.14
2023-05-24T11:06:56.907Z,18.23
2023-05-24T11:09:24.874Z,18.27
2023-05-24T11:11:57.438Z,19.08
2023-05-24T11:14:29.340Z,19.80
2023-05-24T11:17:00.177Z,20.57
2023-05-24T11:19:39.151Z,21.11
2023-05-24T11:22:09.495Z,21.32
2023-05-24T11:24:37.020Z,21.23
2023-05-24T11:27:07.147Z,21.69
2023-05-24T11:29:43.270Z,21.95
2023-05-24T11:32:16.872Z,22.37
2023-05-24T11:34:48.826Z,22.36
2023-05-24T11:37:18.377Z,22.25
2023-05-24T11:39:55.041Z,21.57
2023-05-24T11:42:25.333Z,20.91
2023-05-24T11:44:54.691Z,20.27
2023-05-24T11:47:25.082Z,19.96
2023-05-24T11:49:52.599Z,19.74
2023-05-24T11:52:19.938Z,20.70
2023-05-24T11:54:47.021Z,21.70
2023-05-24T11:57:15.657Z,21.54
2023-05-24T11:59:44.611Z,20.69
2023-05-24T12:02:12.154Z,20.59
2023-05-24T12:04:39.918Z,21.03
2023-05-24T12:07:12.791Z,22.41
2023-05-24T12:09:39.714Z,23.18
2023-05-24T12:12:07.389Z,23.66
2023-05-24T12:14:38.426Z,24.11
2023-05-24T12:17:05.968Z,24.33
2023-05-24T12:19:38.338Z,24.63
2023-05-24T12:22:07.401Z,24.80
2023-05-24T12:24:37.314Z,24.70
2023-05-24T12:27:08.737Z,24.46
2023-05-24T12:29:41.935Z,24.91
2023-05-24T12:32:13.653Z,24.30
2023-05-24T12:34:43.804Z,24.12
2023-05-24T12:37:15.862Z,24.66
2023-05-24T12:39:44.848Z,25.19
2023-05-24T12:42:14.028Z,25.23
2023-05-24T12:44:41.768Z,25.30
2023-05-24T12:47:09.527Z,25.34
2023-05-24T12:49:36.777Z,25.07
2023-05-24T12:52:04.177Z,25.48
2023-05-24T12:54:31.506Z,25.59
2023-05-24T12:57:00.276Z,25.70
2023-05-24T12:59:31.306Z,26.08
2023-05-24T13:01:58.402Z,26.27
2023-05-24T13:04:27.093Z,26.32
2023-05-24T13:06:54.438Z,26.10
2023-05-24T13:09:23.189Z,26.17
2023-05-24T13:11:50.738Z,26.02
2023-05-24T13:14:19.708Z,25.97
2023-05-24T13:16:47.270Z,25.86
2023-05-24T13:19:14.273Z,25.92
2023-05-24T13:21:41.521Z,26.04
2023-05-24T13:24:09.256Z,25.71
2023-05-24T13:26:37.933Z,25.16
2023-05-24T13:31:39.005Z,22.71
2023-05-24T13:34:06.523Z,22.38
2023-05-24T13:36:34.656Z,23.28
2023-05-24T13:39:14.900Z,24.60
2023-05-24T13:41:44.514Z,23.70
2023-05-24T13:44:16.366Z,23.02
2023-05-24T13:46:44.570Z,22.71
2023-05-24T13:49:12.999Z,23.12
2023-05-24T13:51:40.519Z,23.61
2023-05-24T13:54:08.287Z,24.19
2023-05-24T13:56:35.828Z,24.84
2023-05-24T13:59:04.292Z,25.02
2023-05-24T14:01:31.942Z,25.35
2023-05-24T14:04:01.340Z,25.45
2023-05-24T14:06:28.398Z,24.22
2023-05-24T14:08:55.706Z,22.98
2023-05-24T14:11:24.807Z,22.30
2023-05-24T14:16:24.260Z,21.69
2023-05-24T14:18:51.717Z,21.45
2023-05-24T14:21:21.576Z,21.39
2023-05-24T14:23:48.552Z,21.24
2023-05-24T14:26:16.876Z,20.89
2023-05-24T14:28:45.305Z,20.73
2023-05-24T14:31:12.139Z,21.46
2023-05-24T14:33:39.478Z,22.39
2023-05-24T14:36:06.902Z,22.87
2023-05-24T14:38:33.694Z,23.27
2023-05-24T14:41:01.586Z,23.40
2023-05-24T14:43:28.575Z,23.59
2023-05-24T14:45:55.613Z,23.69
2023-05-24T14:48:22.761Z,23.79
2023-05-24T14:50:49.543Z,23.84
2023-05-24T14:53:16.341Z,23.74
2023-05-24T14:55:44.304Z,24.07
2023-05-24T14:58:12.671Z,23.93
2023-05-24T15:00:41.361Z,24.01
2023-05-24T15:03:09.040Z,24.14
2023-05-24T15:05:37.060Z,24.38
2023-05-24T15:08:05.472Z,24.22
2023-05-24T15:10:33.302Z,23.87
2023-05-24T15:13:01.767Z,23.39
2023-05-24T15:15:29.065Z,22.43
2023-05-24T15:17:57.658Z,22.10
2023-05-24T15:20:26.014Z,22.58
2023-05-24T15:22:53.204Z,23.02
2023-05-24T15:25:20.612Z,23.32
2023-05-24T15:27:47.978Z,23.54
2023-05-24T15:30:14.922Z,23.52
2023-05-24T15:32:41.900Z,23.39
2023-05-24T15:35:09.547Z,23.50
2023-05-24T15:37:36.509Z,23.03
2023-05-24T15:40:03.844Z,22.18
2023-05-24T15:42:32.072Z,21.82
2023-05-24T15:44:58.930Z,21.38
2023-05-24T15:47:29.211Z,20.97
2023-05-24T15:49:56.946Z,20.56
2023-05-24T15:52:24.163Z,20.46
2023-05-24T15:54:51.266Z,20.42
2023-05-24T15:57:19.475Z,20.43
2023-05-24T15:59:46.349Z,20.45
2023-05-24T16:02:13.531Z,20.37
2023-05-24T16:04:40.503Z,20.19
2023-05-24T16:07:07.480Z,20.08
2023-05-24T16:09:34.513Z,20.02
2023-05-24T16:12:01.607Z,20.06
2023-05-24T16:14:29.764Z,19.97
2023-05-24T16:16:58.804Z,19.88
2023-05-24T16:19:26.188Z,19.70
2023-05-24T16:21:53.140Z,19.67
2023-05-24T16:24:20.170Z,19.78
2023-05-24T16:26:47.159Z,19.66
2023-05-24T16:29:16.692Z,19.62
2023-05-24T16:31:43.723Z,19.65
2023-05-24T16:34:10.734Z,19.77
2023-05-24T16:36:37.773Z,19.88
2023-05-24T16:39:05.164Z,19.81
2023-05-24T16:41:37.385Z,19.76
2023-05-24T16:44:04.744Z,19.72
2023-05-24T16:46:32.301Z,19.58
2023-05-24T16:49:00.485Z,19.34
2023-05-24T16:51:27.475Z,19.26
2023-05-24T16:53:54.285Z,19.16
2023-05-24T16:56:21.431Z,18.94
2023-05-24T16:58:48.500Z,18.89
2023-05-24T17:01:15.686Z,18.85
2023-05-24T17:03:43.491Z,18.82
2023-05-24T17:06:10.335Z,18.73
2023-05-24T17:08:37.710Z,18.40
2023-05-24T17:11:06.239Z,18.38
2023-05-24T17:13:34.088Z,18.37
2023-05-24T17:16:03.775Z,18.31
2023-05-24T17:18:31.398Z,18.20
2023-05-24T17:20:58.817Z,18.12
2023-05-24T17:23:32.683Z,18.10
2023-05-24T17:26:01.341Z,18.15
2023-05-24T17:28:28.763Z,18.14
2023-05-24T17:30:57.739Z,18.07
2023-05-24T17:33:28.318Z,18.09
2023-05-24T17:35:56.927Z,18.06
2023-05-24T17:38:28.477Z,18.02
2023-05-24T17:40:59.473Z,17.94
2023-05-24T17:43:32.780Z,17.85
2023-05-24T17:46:05.849Z,17.90
2023-05-24T17:48:36.214Z,17.76
2023-05-24T17:51:06.738Z,17.80
2023-05-24T17:53:35.392Z,17.61
2023-05-24T17:56:04.173Z,17.71
2023-05-24T17:58:35.329Z,17.72
2023-05-24T18:01:04.968Z,17.75
2023-05-24T18:03:39.059Z,17.77
2023-05-24T18:06:07.044Z,17.72
2023-05-24T18:08:38.794Z,17.58
2023-05-24T18:11:09.366Z,17.65
2023-05-24T18:13:39.148Z,17.65
2023-05-24T18:16:08.339Z,17.63
2023-05-24T18:18:35.289Z,17.60
2023-05-24T18:21:02.198Z,17.56
2023-05-24T18:23:29.145Z,17.55
2023-05-24T18:26:00.114Z,17.53
2023-05-24T18:28:28.248Z,17.53
2023-05-24T18:30:55.180Z,17.55
2023-05-24T18:33:22.136Z,17.49
2023-05-24T18:35:49.195Z,17.42
2023-05-24T18:38:16.207Z,17.27
2023-05-24T18:40:43.055Z,17.22
2023-05-24T18:43:09.885Z,17.12
2023-05-24T18:45:37.204Z,17.12
2023-05-24T18:48:05.858Z,17.11
2023-05-24T18:50:32.715Z,16.95
2023-05-24T18:53:00.006Z,16.80
2023-05-24T18:55:26.809Z,16.82
2023-05-24T18:57:53.609Z,16.92
2023-05-24T19:00:22.886Z,16.93
2023-05-24T19:02:52.642Z,16.78
2023-05-24T19:05:20.393Z,16.67
2023-05-24T19:07:47.527Z,16.62
2023-05-24T19:10:14.609Z,16.60
2023-05-24T19:12:41.479Z,16.58
2023-05-24T19:15:09.057Z,16.54
2023-05-24T19:17:37.257Z,16.49
2023-05-24T19:20:04.722Z,16.46
2023-05-24T19:22:31.588Z,16.38
2023-05-24T19:24:58.573Z,16.43
2023-05-24T19:27:28.269Z,16.42
2023-05-24T19:29:55.193Z,16.33
2023-05-24T19:32:22.351Z,16.36
2023-05-24T19:34:49.369Z,16.29
2023-05-24T19:37:16.379Z,16.29
2023-05-24T19:39:43.305Z,16.23
2023-05-24T19:42:14.139Z,16.10
2023-05-24T19:44:41.114Z,16.01
2023-05-24T19:47:08.152Z,15.98
2023-05-24T19:49:35.021Z,15.92
2023-05-24T19:52:02.083Z,15.85
2023-05-24T19:54:29.260Z,15.82
2023-05-24T19:56:58.299Z,15.82
2023-05-24T19:59:25.235Z,15.81
2023-05-24T20:01:54.906Z,15.73
2023-05-24T20:04:23.705Z,15.58
2023-05-24T20:06:55.700Z,15.55
2023-05-24T20:09:22.578Z,15.50
2023-05-24T20:11:52.571Z,15.50
2023-05-24T20:14:19.421Z,15.50
2023-05-24T20:16:46.402Z,15.53
2023-05-24T20:19:13.789Z,15.48
2023-05-24T20:21:40.637Z,15.40
2023-05-24T20:24:07.606Z,15.32
2023-05-24T20:26:35.075Z,15.33
2023-05-24T20:29:01.988Z,15.30
2023-05-24T20:31:29.248Z,15.24
2023-05-24T20:33:56.343Z,15.19
2023-05-24T20:36:23.450Z,15.10
2023-05-24T20:38:50.379Z,14.81
2023-05-24T20:41:17.993Z,14.47
2023-05-24T20:43:44.993Z,14.56
2023-05-24T20:46:14.358Z,14.58
2023-05-24T20:48:43.175Z,14.62
2023-05-24T20:51:10.426Z,14.66
2023-05-24T20:53:37.697Z,14.68
2023-05-24T20:56:04.754Z,14.68
2023-05-24T20:58:31.545Z,14.61
2023-05-24T21:00:59.134Z,14.45
2023-05-24T21:03:26.266Z,14.13
2023-05-24T21:05:56.259Z,14.06
2023-05-24T21:08:23.045Z,14.03
2023-05-24T21:10:50.634Z,13.95
2023-05-24T21:13:20.601Z,13.83
2023-05-24T21:15:47.725Z,13.83
2023-05-24T21:18:14.851Z,13.89
2023-05-24T21:20:41.949Z,13.84
2023-05-24T21:23:09.882Z,13.72
2023-05-24T21:25:36.812Z,13.65
2023-05-24T21:28:03.742Z,13.56
2023-05-24T21:30:31.025Z,13.59
2023-05-24T21:32:58.034Z,13.65
2023-05-24T21:35:24.903Z,13.63
2023-05-24T21:37:52.769Z,13.44
2023-05-24T21:40:20.047Z,13.34
2023-05-24T21:42:46.874Z,13.25
2023-05-24T21:45:14.117Z,13.20
2023-05-24T21:47:44.742Z,13.15
2023-05-24T21:50:11.563Z,13.05
2023-05-24T21:52:39.291Z,12.85
2023-05-24T21:55:06.972Z,12.69
2023-05-24T21:57:33.776Z,12.70
2023-05-24T22:00:00.701Z,12.70
2023-05-24T22:02:33.997Z,12.55
2023-05-24T22:05:01.488Z,12.17
2023-05-24T22:07:28.461Z,11.93
2023-05-24T22:09:55.314Z,11.88
2023-05-24T22:12:22.204Z,11.97
2023-05-24T22:14:49.516Z,11.87
2023-05-24T22:17:16.717Z,11.80
2023-05-24T22:19:44.061Z,11.73
2023-05-24T22:22:14.467Z,11.77
2023-05-24T22:24:41.297Z,11.79
2023-05-24T22:27:13.570Z,11.79
2023-05-24T22:29:40.433Z,11.56
2023-05-24T22:32:07.520Z,11.49
2023-05-24T22:34:34.405Z,11.51
2023-05-24T22:37:03.216Z,11.52
2023-05-24T22:39:32.570Z,11.53
2023-05-24T22:41:59.765Z,11.39
2023-05-24T22:44:28.151Z,11.43
2023-05-24T22:46:56.357Z,11.48
2023-05-24T22:49:23.185Z,11.43
2023-05-24T22:51:51.096Z,11.30
2023-05-24T22:54:18.069Z,11.18
2023-05-24T22:56:46.188Z,11.25
2023-05-24T22:59:13.657Z,11.15
2023-05-24T23:01:40.814Z,10.97
2023-05-24T23:04:20.662Z,11.01
2023-05-24T23:06:52.192Z,10.99
2023-05-24T23:09:28.865Z,10.89
2023-05-24T23:11:58.495Z,10.92
2023-05-24T23:14:25.824Z,10.83
2023-05-24T23:16:52.856Z,10.62
2023-05-24T23:19:22.768Z,10.56
2023-05-24T23:21:52.515Z,10.49
2023-05-24T23:24:19.423Z,10.60
2023-05-24T23:26:46.436Z,10.66
2023-05-24T23:29:13.764Z,10.57
2023-05-24T23:31:40.798Z,10.54
2023-05-24T23:34:07.669Z,10.52
2023-05-24T23:36:34.487Z,10.56
2023-05-24T23:39:01.575Z,10.32
2023-05-24T23:41:28.390Z,10.29
2023-05-24T23:43:55.344Z,10.47
2023-05-24T23:46:22.273Z,10.45
2023-05-24T23:48:49.162Z,10.47
2023-05-24T23:51:16.069Z,10.46
2023-05-24T23:53:42.937Z,10.42
2023-05-24T23:56:09.924Z,10.37
2023-05-24T23:58:37.742Z,10.20
